createdAt,value
2018-07-04T00:06:32.419Z,1008.79
2018-07-04T00:16:32.732Z,1008.76
2018-07-04T00:26:32.400Z,1008.69
2018-07-04T00:36:32.365Z,1008.73
2018-07-04T00:46:32.333Z,1008.71
2018-07-04T00:56:32.436Z,1008.71
2018-07-04T01:06:32.352Z,1008.75
2018-07-04T01:16:32.420Z,1008.65
2018-07-04T01:26:32.375Z,1008.52
2018-07-04T01:36:32.354Z,1008.39
2018-07-04T01:46:32.422Z,1008.37
2018-07-04T01:56:32.389Z,1008.23
2018-07-04T02:06:32.337Z,1008.23
2018-07-04T02:16:32.385Z,1008.25
2018-07-04T02:26:32.364Z,1008.26
2018-07-04T02:36:32.426Z,1008.24
2018-07-04T02:46:32.370Z,1008.19
2018-07-04T02:56:32.345Z,1008.14
2018-07-04T03:06:32.393Z,1008.03
2018-07-04T03:16:32.366Z,1007.96
2018-07-04T03:26:32.328Z,1007.95
2018-07-04T03:36:32.372Z,1008.02
2018-07-04T03:46:32.351Z,1007.94
2018-07-04T03:56:32.405Z,1007.97
2018-07-04T04:06:32.365Z,1008.06
2018-07-04T04:16:32.329Z,1007.92
2018-07-04T04:26:32.381Z,1008
2018-07-04T04:36:32.360Z,1008.07
2018-07-04T04:46:32.429Z,1008
2018-07-04T04:56:32.377Z,1007.88
2018-07-04T05:06:32.344Z,1007.9
2018-07-04T05:16:32.397Z,1007.82
2018-07-04T05:26:32.377Z,1007.81
2018-07-04T05:36:32.336Z,1007.85
2018-07-04T05:46:32.397Z,1007.82
2018-07-04T05:56:32.341Z,1007.77
2018-07-04T06:06:32.423Z,1008.08
2018-07-04T06:16:32.402Z,1007.78
2018-07-04T06:26:32.328Z,1007.71
2018-07-04T06:36:32.413Z,1007.55
2018-07-04T06:46:32.374Z,1007.6
2018-07-04T06:56:32.420Z,1007.56
2018-07-04T07:06:32.392Z,1007.54
2018-07-04T07:16:32.343Z,1007.57
2018-07-04T07:26:32.411Z,1007.53
2018-07-04T07:36:32.378Z,1007.5
2018-07-04T07:46:32.431Z,1007.44
2018-07-04T07:56:32.407Z,1007.35
2018-07-04T08:06:32.358Z,1007.28
2018-07-04T08:16:32.412Z,1007.4
2018-07-04T08:26:32.362Z,1007.31
2018-07-04T08:36:32.430Z,1007.24
2018-07-04T08:46:32.404Z,1007.15
2018-07-04T08:56:32.476Z,1007.24
2018-07-04T09:06:32.419Z,1007.08
2018-07-04T09:16:32.393Z,1007.05
2018-07-04T09:26:32.458Z,1007.1
2018-07-04T09:36:32.398Z,1007.1
2018-07-04T09:46:32.408Z,1007.08
2018-07-04T09:56:32.374Z,1007.01
2018-07-04T10:06:32.365Z,1006.92
2018-07-04T10:16:32.405Z,1006.94
2018-07-04T10:26:32.427Z,1006.82
2018-07-04T10:36:32.376Z,1006.79
2018-07-04T10:46:32.503Z,1006.72
2018-07-04T10:56:32.398Z,1006.71
2018-07-04T11:06:32.442Z,1006.6
2018-07-04T11:16:32.417Z,1006.45
2018-07-04T11:26:32.384Z,1006.34
2018-07-04T11:36:32.398Z,1006.3
2018-07-04T11:46:32.410Z,1006.21
2018-07-04T11:56:32.412Z,1006.15
2018-07-04T12:06:32.389Z,1006.04
2018-07-04T12:16:32.417Z,1006.01
2018-07-04T12:26:32.414Z,1005.97
2018-07-04T12:36:32.440Z,1005.95
2018-07-04T12:46:32.451Z,1005.93
2018-07-04T12:56:32.421Z,1005.89
2018-07-04T13:06:32.453Z,1005.83
2018-07-04T13:16:32.443Z,1005.83
2018-07-04T13:26:32.436Z,1005.82
2018-07-04T13:36:32.446Z,1005.67
2018-07-04T13:46:32.470Z,1005.63
2018-07-04T13:56:32.440Z,1005.5
2018-07-04T14:06:32.471Z,1005.64
2018-07-04T14:16:32.560Z,1005.55
2018-07-04T14:26:32.531Z,1005.5
2018-07-04T14:36:32.535Z,1005.4
2018-07-04T14:46:32.521Z,1005.41
2018-07-04T14:56:32.534Z,1005.3
2018-07-04T15:06:32.561Z,1005.24
2018-07-04T15:16:32.862Z,1005.17
2018-07-04T15:26:32.503Z,1005.19
2018-07-04T15:36:32.523Z,1005.24
2018-07-04T15:46:32.517Z,1005.27
2018-07-04T15:56:32.567Z,1005.31
2018-07-04T16:06:35.778Z,1005.24
2018-07-04T16:16:32.498Z,1005.22
2018-07-04T16:26:32.568Z,1005.1
2018-07-04T16:36:32.686Z,1005.08
2018-07-04T16:46:33.533Z,1005.1
2018-07-04T16:56:32.560Z,1004.93
2018-07-04T17:06:32.529Z,1004.97
2018-07-04T17:16:32.590Z,1005.04
2018-07-04T17:36:32.591Z,1004.87
2018-07-04T17:46:32.801Z,1004.78
2018-07-04T17:56:32.849Z,1004.62
2018-07-04T18:06:32.646Z,1004.57
2018-07-04T18:16:32.537Z,1004.68
2018-07-04T18:26:32.615Z,1004.7
2018-07-04T18:36:32.626Z,1004.77
2018-07-04T18:46:32.670Z,1004.85
2018-07-04T18:56:32.653Z,1004.87
2018-07-04T19:06:32.591Z,1004.78
2018-07-04T19:16:32.627Z,1004.87
2018-07-04T19:26:32.576Z,1004.85
2018-07-04T19:36:32.727Z,1004.88
2018-07-04T19:46:32.734Z,1004.88
2018-07-04T19:56:32.613Z,1005.07
2018-07-04T20:06:32.701Z,1005.32
2018-07-04T20:16:32.666Z,1005.28
2018-07-04T20:26:32.744Z,1005.38
2018-07-04T20:36:32.619Z,1005.29
2018-07-04T20:46:32.594Z,1005.3
2018-07-04T20:56:32.648Z,1005.23
2018-07-04T21:06:32.632Z,1005.31
2018-07-04T21:16:32.658Z,1005.06
2018-07-04T21:26:32.633Z,1005.05
2018-07-04T21:36:32.701Z,1005.2
2018-07-04T21:46:32.707Z,1005.25
2018-07-04T21:56:32.882Z,1005.4
2018-07-04T22:06:32.567Z,1005.57
2018-07-04T22:16:32.685Z,1005.64
2018-07-04T22:26:32.595Z,1005.82
2018-07-04T22:36:32.803Z,1005.83
2018-07-04T22:46:32.598Z,1005.82
2018-07-04T22:56:34.653Z,1005.84
2018-07-04T23:06:34.877Z,1005.89
2018-07-04T23:16:32.585Z,1005.91
2018-07-04T23:26:32.657Z,1005.87
2018-07-04T23:36:32.620Z,1005.9
2018-07-04T23:46:32.572Z,1005.85
2018-07-04T23:56:32.675Z,1005.88
